Star Alliance - VOMM Airport Info

    VOMM (Chennai International Airport)  Login to use Map Selector

  ALLIANCE AIRCRAFT AT THIS AIRPORT
Tail Number Aircraft ModelFlightsRunwayRangeCapacityPaxSale
VT-QGCLockheed C-130 (Capt Sim) 04174ft4350nm44138Kg62Yes
  RUNWAY INFORMATION    |    Airport Elevation : 52ft    |    LAT : 12.9900054931641  /  LON : 80.1692962646484
Runway Number 07 / 25 Runway Width 148' Runway Length 12001'
Lighted Runway Yes Runway StatusOpen Runway Surface Asphalt
Runway Number 12 / 30 Runway Width 148' Runway Length 6708'
Lighted Runway Yes Runway StatusOpen Runway Surface Concrete
  CLOSE ALTERNATE AIRPORTS
ICAODistanceAirport NameLongest RWRW SurfaceMAP
VOTX6NMTambaram Air Force Station5965FTAsphalt
VOAR28NMArkonam Airport13460FTAsphalt
VOTP53NMTirupati Airport7545FTAsphalt
VOPC65NMPondicherry Airport4000FTAsphalt
  AIRPORT WEATHER
79°F | 26°C
Temperature
89%
Humidity
29.76" | 0mb
Pressure
2sm
Visibility
IFR
Flight Rules
SCT @ 2000ft
Initial Clouds
BR
Conditions
Wind Info
11/27/22 20:00Z
Updated

VOMM 272000Z 00000KT 3000 BR SCT020 SCT100 26/24 Q1008 TEMPO 2000 BR
  AIRPORT FREQUENCIES
NameFrequency
ATIS126.400
GROUND121.900
TOWER118.100
APPROACH119.500
DEPARTURE127.900
IMAS (RWY 7)110.300
  PILOT ENTERED AIRPORT INFORMATION SEE ALL PILOT ENTERED AIRPORT INFO

Powered by Virtual Airlines Manager